Time;durP1;ratioP1;P1;durP2;ratioP2;P2;SDS_P1;SDS_P2;PMS_P1;PMS_P2;Temp;Humidity;BMP_temperature;BMP_pressure;BME280_temperature;BME280_humidity;BME280_pressure;Samples;Min_cycle;Max_cycle;Signal;HPM_P1;HPM_P2
2022/06/11 00:00:11;;;;;;;39.87;28.30;;;16.00;81.40;;;;;;4964305;28;21068;-71
2022/06/11 00:02:38;;;;;;;29.30;27.50;;;16.00;81.30;;;;;;4970456;28;20463;-72
2022/06/11 00:05:06;;;;;;;27.47;25.67;;;16.00;81.40;;;;;;4961621;28;20547;-71
2022/06/11 00:07:37;;;;;;;28.00;26.30;;;16.00;81.20;;;;;;4969312;28;20494;-71
2022/06/11 00:10:06;;;;;;;26.63;24.80;;;15.90;81.60;;;;;;4963609;28;20475;-70
2022/06/11 00:12:33;;;;;;;27.30;25.63;;;15.80;81.80;;;;;;4966346;28;20937;-70
2022/06/11 00:15:00;;;;;;;27.30;25.50;;;15.80;81.70;;;;;;4964330;28;21028;-72
2022/06/11 00:17:29;;;;;;;26.70;24.83;;;15.80;81.70;;;;;;4972278;28;20602;-71
2022/06/11 00:19:58;;;;;;;28.33;26.37;;;15.80;81.80;;;;;;4971740;28;20858;-71
2022/06/11 00:22:25;;;;;;;28.20;26.30;;;15.80;82.00;;;;;;4965782;28;20537;-71
2022/06/11 00:24:52;;;;;;;27.27;25.40;;;15.70;82.00;;;;;;4969057;28;20546;-70
2022/06/11 00:27:21;;;;;;;27.20;25.43;;;15.70;82.00;;;;;;4966760;28;20477;-71
2022/06/11 00:29:49;;;;;;;27.67;25.97;;;15.70;82.00;;;;;;4966701;28;20475;-72
2022/06/11 00:32:17;;;;;;;27.07;25.27;;;15.70;82.00;;;;;;4968033;28;20457;-70
2022/06/11 00:34:45;;;;;;;28.57;26.67;;;15.60;82.20;;;;;;4966989;28;20479;-71
2022/06/11 00:37:16;;;;;;;28.27;26.47;;;15.60;82.50;;;;;;4968816;28;20521;-70
2022/06/11 00:39:44;;;;;;;27.53;25.50;;;15.60;82.50;;;;;;4967585;28;21042;-70
2022/06/11 00:42:15;;;;;;;27.07;25.47;;;15.60;82.20;;;;;;4967616;28;20543;-70
2022/06/11 00:44:43;;;;;;;28.87;26.87;;;15.60;82.00;;;;;;4969590;28;21037;-70
2022/06/11 00:47:16;;;;;;;30.07;28.07;;;15.60;82.00;;;;;;4969125;28;20582;-70
2022/06/11 00:49:49;;;;;;;27.03;25.27;;;15.60;81.70;;;;;;4966712;28;20502;-68
2022/06/11 00:52:30;;;;;;;28.23;26.43;;;15.60;81.50;;;;;;4965497;28;20546;-69
2022/06/11 00:55:04;;;;;;;27.83;26.20;;;15.60;81.50;;;;;;4967313;28;20558;-68
2022/06/11 00:57:34;;;;;;;29.30;27.60;;;15.60;81.40;;;;;;4966049;28;20471;-69
2022/06/11 01:00:08;;;;;;;27.27;25.57;;;15.60;81.20;;;;;;4968600;28;20550;-70
2022/06/11 01:02:35;;;;;;;26.70;25.27;;;15.70;81.00;;;;;;4970702;28;20475;-70
2022/06/11 01:05:05;;;;;;;26.70;25.00;;;15.60;81.00;;;;;;4967244;28;20490;-71
2022/06/11 01:07:47;;;;;;;26.80;25.20;;;15.60;80.90;;;;;;4967699;28;20489;-70
2022/06/11 01:10:42;;;;;;;27.20;25.37;;;15.60;81.00;;;;;;4963437;28;20470;-71
2022/06/11 01:13:18;;;;;;;26.70;25.10;;;15.60;81.00;;;;;;4964263;28;20539;-72
2022/06/11 01:15:50;;;;;;;26.97;25.40;;;15.60;81.10;;;;;;4961441;28;20490;-70
2022/06/11 01:18:30;;;;;;;26.47;24.80;;;15.60;80.80;;;;;;4966074;28;20569;-71
2022/06/11 01:21:07;;;;;;;26.97;25.23;;;15.60;80.70;;;;;;4961777;28;20529;-71
2022/06/11 01:24:03;;;;;;;25.10;23.67;;;15.60;80.80;;;;;;4962819;28;20553;-69
2022/06/11 01:26:47;;;;;;;26.40;24.80;;;15.60;80.50;;;;;;4966438;28;20566;-69
2022/06/11 01:29:46;;;;;;;25.60;24.10;;;15.60;80.40;;;;;;4962822;28;20466;-69
2022/06/11 01:32:19;;;;;;;25.23;23.83;;;15.60;80.50;;;;;;4942669;28;20451;-69
2022/06/11 01:34:57;;;;;;;26.20;24.70;;;15.50;80.50;;;;;;4964956;28;20575;-69
2022/06/11 01:37:30;;;;;;;25.80;24.33;;;15.50;80.30;;;;;;4966580;28;20826;-69
2022/06/11 01:40:01;;;;;;;25.47;23.97;;;15.60;80.10;;;;;;4963197;28;20594;-68
2022/06/11 01:42:34;;;;;;;25.30;24.00;;;15.60;79.90;;;;;;4967230;28;20578;-68
2022/06/11 01:45:08;;;;;;;26.37;24.57;;;15.50;79.90;;;;;;4967756;28;20466;-69
2022/06/11 01:47:36;;;;;;;25.43;23.63;;;15.50;80.00;;;;;;4969981;28;20561;-69
2022/06/11 01:50:06;;;;;;;25.80;24.20;;;15.50;79.60;;;;;;4965013;28;20458;-68
2022/06/11 01:52:52;;;;;;;25.77;23.97;;;15.50;79.80;;;;;;4963314;28;20498;-69
2022/06/11 01:55:29;;;;;;;25.60;24.20;;;15.40;79.90;;;;;;4963496;28;20992;-69
2022/06/11 01:58:11;;;;;;;24.97;23.57;;;15.40;79.90;;;;;;4957761;28;20450;-69
2022/06/11 02:00:44;;;;;;;25.70;24.07;;;15.30;80.30;;;;;;4965324;28;21416;-68
2022/06/11 02:03:34;;;;;;;25.70;24.10;;;15.30;80.30;;;;;;4967469;28;20463;-69
2022/06/11 02:06:28;;;;;;;25.60;24.20;;;15.30;80.60;;;;;;4964502;28;20479;-69
2022/06/11 02:09:10;;;;;;;25.37;23.97;;;15.30;80.50;;;;;;4960346;28;20542;-69
2022/06/11 02:11:42;;;;;;;26.13;24.73;;;15.30;80.30;;;;;;4967328;28;20545;-69
2022/06/11 02:14:15;;;;;;;24.90;23.60;;;15.20;80.70;;;;;;4963397;28;20555;-68
2022/06/11 02:16:49;;;;;;;25.60;24.10;;;15.20;80.70;;;;;;4970748;28;20908;-69
2022/06/11 02:19:20;;;;;;;25.37;23.77;;;15.20;80.10;;;;;;4962620;28;20566;-68
2022/06/11 02:21:51;;;;;;;25.17;23.77;;;15.20;79.90;;;;;;4964527;28;21331;-69
2022/06/11 02:24:21;;;;;;;25.67;24.17;;;15.20;79.90;;;;;;4965847;28;20455;-68
2022/06/11 02:26:52;;;;;;;25.30;23.90;;;15.20;80.20;;;;;;4959209;28;20574;-69
2022/06/11 02:29:22;;;;;;;25.27;23.77;;;15.10;80.10;;;;;;4964135;28;20490;-68
2022/06/11 02:31:54;;;;;;;24.70;23.30;;;15.10;79.90;;;;;;4962126;28;20469;-68
2022/06/11 02:34:24;;;;;;;24.63;23.33;;;15.10;80.10;;;;;;4963289;28;20550;-69
2022/06/11 02:36:57;;;;;;;25.63;24.13;;;15.10;80.10;;;;;;4963065;28;21119;-68
2022/06/11 02:39:25;;;;;;;24.07;22.50;;;15.00;80.30;;;;;;4960050;28;21095;-69
2022/06/11 02:41:53;;;;;;;24.70;23.40;;;15.00;80.50;;;;;;4965601;28;20538;-69
2022/06/11 02:44:20;;;;;;;24.67;23.23;;;15.00;80.70;;;;;;4961755;28;20542;-69
2022/06/11 02:46:47;;;;;;;24.80;23.40;;;14.90;80.80;;;;;;4970143;28;20597;-69
2022/06/11 02:49:19;;;;;;;24.80;23.40;;;14.90;80.80;;;;;;4961217;28;20573;-68
2022/06/11 02:51:47;;;;;;;24.90;23.33;;;14.80;81.00;;;;;;4963809;28;20607;-70
2022/06/11 02:54:15;;;;;;;25.43;23.93;;;14.90;81.00;;;;;;4966314;28;20542;-70
2022/06/11 02:56:43;;;;;;;25.93;24.43;;;14.80;81.20;;;;;;4963468;28;20478;-72
2022/06/11 02:59:11;;;;;;;23.93;22.63;;;14.90;81.30;;;;;;4963991;28;20553;-70
2022/06/11 03:01:38;;;;;;;25.47;23.60;;;14.90;80.90;;;;;;4962244;28;20538;-70
2022/06/11 03:04:06;;;;;;;25.03;23.53;;;14.90;81.00;;;;;;4961906;28;20554;-70
2022/06/11 03:06:34;;;;;;;25.40;24.00;;;14.90;81.00;;;;;;4965611;28;20501;-70
2022/06/11 03:09:02;;;;;;;25.80;24.20;;;14.90;81.00;;;;;;4965953;28;20554;-72
2022/06/11 03:11:29;;;;;;;24.83;23.43;;;14.90;80.80;;;;;;4964590;28;20996;-71
2022/06/11 03:13:56;;;;;;;24.83;23.30;;;14.80;81.10;;;;;;4965596;28;20596;-71
2022/06/11 03:16:23;;;;;;;25.70;24.20;;;14.90;81.00;;;;;;4963585;28;20569;-71
2022/06/11 03:18:50;;;;;;;25.40;24.07;;;14.80;80.90;;;;;;4972015;28;20514;-70
2022/06/11 03:21:18;;;;;;;25.03;23.63;;;14.80;80.90;;;;;;4968322;28;20537;-71
2022/06/11 03:23:47;;;;;;;25.60;24.27;;;14.90;80.80;;;;;;4963088;28;20575;-71
2022/06/11 03:26:14;;;;;;;25.70;24.20;;;14.90;80.60;;;;;;4973144;28;20481;-70
2022/06/11 03:28:41;;;;;;;24.90;23.50;;;14.90;80.60;;;;;;4963622;28;20579;-70
2022/06/11 03:31:09;;;;;;;25.90;24.30;;;14.90;80.60;;;;;;4970900;28;20462;-70
2022/06/11 03:33:39;;;;;;;25.50;23.90;;;14.90;80.50;;;;;;4966407;28;20545;-72
2022/06/11 03:36:08;;;;;;;25.70;23.60;;;15.00;80.20;;;;;;4969401;28;22851;-70
2022/06/11 03:38:35;;;;;;;24.43;23.03;;;15.00;80.40;;;;;;4970240;28;20521;-71
2022/06/11 03:41:05;;;;;;;24.30;22.90;;;15.00;80.70;;;;;;4964393;28;20558;-70
2022/06/11 03:43:33;;;;;;;24.90;23.50;;;15.10;80.40;;;;;;4963297;28;20471;-73
2022/06/11 03:46:00;;;;;;;25.07;23.57;;;15.20;79.90;;;;;;4967658;28;20611;-71
2022/06/11 03:48:29;;;;;;;25.03;23.60;;;15.30;79.60;;;;;;4968568;28;20554;-70
2022/06/11 03:50:57;;;;;;;25.23;23.83;;;15.40;79.20;;;;;;4962064;28;20462;-71
2022/06/11 03:53:25;;;;;;;24.87;23.57;;;15.70;78.10;;;;;;4968660;28;20855;-70
2022/06/11 03:55:52;;;;;;;24.97;23.57;;;16.00;77.10;;;;;;4967356;28;20495;-71
2022/06/11 03:58:21;;;;;;;25.60;24.30;;;16.40;76.00;;;;;;4969682;28;20459;-71
2022/06/11 04:03:34;;;;;;;26.10;24.70;;;17.10;73.10;;;;;;4967422;28;20489;-72
2022/06/11 04:06:02;;;;;;;25.47;24.07;;;17.10;73.10;;;;;;4968658;28;20503;-70
2022/06/11 04:08:31;;;;;;;26.10;24.80;;;17.10;73.20;;;;;;4967879;28;20456;-73
2022/06/11 04:10:59;;;;;;;26.67;25.00;;;17.00;73.20;;;;;;4963293;28;20558;-71
2022/06/11 04:13:29;;;;;;;26.03;24.53;;;16.90;73.40;;;;;;4967276;28;20465;-69
2022/06/11 04:15:58;;;;;;;26.57;24.97;;;16.90;73.60;;;;;;4968496;28;20639;-68
2022/06/11 04:18:30;;;;;;;25.40;23.97;;;16.90;73.60;;;;;;4970437;28;20550;-68
2022/06/11 04:20:57;;;;;;;26.37;24.73;;;16.90;73.90;;;;;;4968448;28;20949;-68
2022/06/11 04:23:29;;;;;;;26.07;24.57;;;16.90;74.00;;;;;;4963464;28;20929;-68
2022/06/11 04:25:57;;;;;;;26.23;24.73;;;16.90;74.00;;;;;;4968064;28;20521;-68
2022/06/11 04:28:25;;;;;;;25.97;24.47;;;16.90;73.90;;;;;;4970153;28;20813;-68
2022/06/11 04:30:53;;;;;;;26.57;24.97;;;16.90;74.10;;;;;;4981180;28;20565;-68
2022/06/11 04:33:20;;;;;;;27.10;25.23;;;17.00;74.10;;;;;;4970697;28;20609;-69
2022/06/11 04:35:48;;;;;;;26.33;24.90;;;16.90;74.30;;;;;;4963570;28;20486;-68
2022/06/11 04:38:16;;;;;;;26.27;24.77;;;17.00;74.10;;;;;;4970965;28;20538;-68
2022/06/11 04:40:43;;;;;;;25.90;24.50;;;17.10;73.70;;;;;;4964659;28;20555;-69
2022/06/11 04:43:10;;;;;;;26.37;24.80;;;17.00;73.90;;;;;;4968293;28;21346;-69
2022/06/11 04:45:37;;;;;;;25.97;24.47;;;17.10;74.20;;;;;;4967522;28;20598;-68
2022/06/11 04:48:06;;;;;;;25.87;24.47;;;17.20;73.90;;;;;;4972989;28;20550;-68
2022/06/11 04:50:34;;;;;;;26.00;24.37;;;17.20;73.50;;;;;;4961190;28;20550;-70
2022/06/11 04:53:01;;;;;;;27.10;25.27;;;17.30;73.60;;;;;;4962748;28;20459;-68
2022/06/11 04:55:28;;;;;;;26.87;25.17;;;17.40;73.20;;;;;;4966772;28;20542;-69
2022/06/11 04:57:55;;;;;;;26.60;25.00;;;17.50;72.90;;;;;;4969196;28;20536;-68
2022/06/11 05:00:26;;;;;;;27.17;25.53;;;17.50;73.00;;;;;;4965070;28;20472;-68
2022/06/11 05:02:53;;;;;;;26.83;25.33;;;17.60;72.90;;;;;;4962899;28;21111;-69
2022/06/11 05:05:22;;;;;;;27.53;25.93;;;17.60;72.80;;;;;;4963714;28;20562;-68
2022/06/11 05:07:50;;;;;;;26.93;25.17;;;17.60;72.70;;;;;;4968058;28;20654;-69
2022/06/11 05:10:20;;;;;;;26.63;25.13;;;17.70;72.50;;;;;;4965407;28;20481;-69
2022/06/11 05:12:47;;;;;;;26.40;24.90;;;17.80;72.00;;;;;;4964444;28;21011;-69
2022/06/11 05:15:14;;;;;;;29.03;27.23;;;17.70;72.00;;;;;;4965314;28;20468;-68
2022/06/11 05:17:41;;;;;;;26.53;25.13;;;17.70;72.30;;;;;;4966510;28;20559;-68
2022/06/11 05:20:10;;;;;;;25.73;24.30;;;17.70;72.40;;;;;;4965665;28;20491;-69
2022/06/11 05:22:39;;;;;;;26.17;24.67;;;17.80;72.30;;;;;;4964697;28;20459;-69
2022/06/11 05:25:07;;;;;;;27.73;25.63;;;17.80;72.20;;;;;;4965535;28;20542;-68
2022/06/11 05:27:35;;;;;;;27.20;25.60;;;17.90;72.30;;;;;;4965694;28;20807;-69
2022/06/11 05:30:06;;;;;;;28.43;26.83;;;18.00;71.50;;;;;;4959769;28;20550;-69
2022/06/11 05:32:37;;;;;;;26.50;25.00;;;18.10;71.20;;;;;;4962500;28;21134;-69
2022/06/11 05:35:07;;;;;;;26.83;25.17;;;18.10;70.90;;;;;;4956062;28;20558;-69
2022/06/11 05:37:35;;;;;;;26.43;24.83;;;18.10;71.00;;;;;;4967738;28;20497;-68
2022/06/11 05:40:05;;;;;;;25.67;24.17;;;18.20;70.60;;;;;;4964349;28;20646;-69
2022/06/11 05:42:33;;;;;;;26.70;25.20;;;18.30;70.10;;;;;;4957531;28;20464;-69
2022/06/11 05:45:00;;;;;;;26.67;24.97;;;18.40;69.90;;;;;;4956709;28;21230;-68
2022/06/11 05:47:29;;;;;;;27.80;26.20;;;18.50;69.50;;;;;;4968189;28;21632;-69
2022/06/11 05:49:59;;;;;;;26.50;24.90;;;18.60;69.30;;;;;;4964258;28;20463;-69
2022/06/11 05:52:30;;;;;;;27.87;26.17;;;18.80;68.60;;;;;;4965733;28;20478;-72
2022/06/11 05:54:58;;;;;;;27.00;25.50;;;18.90;68.20;;;;;;4966531;28;20546;-68
2022/06/11 05:57:28;;;;;;;27.50;25.87;;;19.00;67.70;;;;;;4965173;28;20959;-68
2022/06/11 05:59:59;;;;;;;26.40;24.80;;;19.10;67.00;;;;;;4968821;28;20554;-69
2022/06/11 06:02:27;;;;;;;27.50;25.50;;;19.10;67.10;;;;;;4960434;28;20574;-68
2022/06/11 06:04:54;;;;;;;27.13;25.53;;;19.30;66.70;;;;;;4967447;28;20559;-68
2022/06/11 06:07:21;;;;;;;28.60;26.90;;;19.40;66.50;;;;;;4967815;28;20477;-68
2022/06/11 06:09:48;;;;;;;27.30;25.80;;;19.60;66.10;;;;;;4960420;28;20888;-69
2022/06/11 06:12:16;;;;;;;26.70;25.10;;;19.70;65.60;;;;;;4963797;28;20466;-69
2022/06/11 06:14:45;;;;;;;27.07;25.57;;;19.80;65.70;;;;;;4966746;28;20490;-68
2022/06/11 06:17:12;;;;;;;28.70;27.00;;;20.00;65.10;;;;;;4963345;28;20502;-69
2022/06/11 06:19:39;;;;;;;26.50;25.00;;;20.10;64.80;;;;;;4965602;28;20463;-69
2022/06/11 06:22:09;;;;;;;27.40;25.80;;;20.00;65.00;;;;;;4963499;28;20561;-70
2022/06/11 06:24:36;;;;;;;28.03;26.20;;;20.10;65.20;;;;;;4961383;28;20486;-72
2022/06/11 06:27:03;;;;;;;26.30;24.80;;;20.30;65.30;;;;;;4964545;28;20486;-73
2022/06/11 06:29:30;;;;;;;26.40;25.00;;;20.50;65.20;;;;;;4961702;28;20549;-71
2022/06/11 06:31:58;;;;;;;27.37;25.87;;;20.60;64.90;;;;;;4967270;28;20473;-70
2022/06/11 06:34:25;;;;;;;26.73;25.13;;;20.80;64.60;;;;;;4957085;28;20567;-72
2022/06/11 06:36:52;;;;;;;28.93;27.20;;;20.90;64.20;;;;;;4966420;28;20487;-71
2022/06/11 06:39:19;;;;;;;26.50;25.00;;;21.00;63.50;;;;;;4966181;28;20474;-71
2022/06/11 06:41:49;;;;;;;28.23;26.53;;;21.10;63.30;;;;;;4966094;28;20546;-72
2022/06/11 06:44:16;;;;;;;27.87;26.20;;;21.30;63.20;;;;;;4962318;28;20477;-72
2022/06/11 06:46:44;;;;;;;26.50;25.10;;;21.30;63.00;;;;;;4966350;28;20473;-74
2022/06/11 06:49:12;;;;;;;26.77;25.17;;;21.40;62.20;;;;;;4963801;28;20477;-72
2022/06/11 06:51:39;;;;;;;26.33;24.93;;;21.40;62.00;;;;;;4966074;28;20576;-72
2022/06/11 06:54:06;;;;;;;28.40;26.80;;;21.40;62.00;;;;;;4964804;28;20954;-73
2022/06/11 06:56:34;;;;;;;26.50;25.00;;;21.60;62.00;;;;;;4965660;28;20486;-74
2022/06/11 06:59:01;;;;;;;28.60;26.80;;;21.70;61.80;;;;;;4965324;28;20973;-74
2022/06/11 07:01:29;;;;;;;28.67;26.57;;;21.90;61.80;;;;;;4971181;28;20470;-73
2022/06/11 07:03:56;;;;;;;28.30;26.70;;;21.90;61.40;;;;;;4968469;28;20542;-70
2022/06/11 07:06:25;;;;;;;27.53;25.80;;;22.00;61.40;;;;;;4965926;28;20596;-73
2022/06/11 07:08:54;;;;;;;27.50;25.80;;;22.10;60.80;;;;;;4970716;28;20546;-71
2022/06/11 07:11:21;;;;;;;28.73;27.13;;;22.20;60.30;;;;;;4968204;28;20463;-73
2022/06/11 07:13:49;;;;;;;27.00;25.53;;;22.30;60.10;;;;;;4967188;28;20557;-73
2022/06/11 07:16:19;;;;;;;27.80;26.10;;;22.40;59.90;;;;;;4965809;28;20514;-72
2022/06/11 07:18:50;;;;;;;29.33;27.63;;;22.60;59.60;;;;;;4963801;28;20501;-73
2022/06/11 07:21:20;;;;;;;26.67;25.17;;;22.60;59.30;;;;;;4968046;28;20566;-73
2022/06/11 07:23:55;;;;;;;26.87;25.27;;;22.70;59.10;;;;;;4966143;28;20540;-72
2022/06/11 07:26:27;;;;;;;27.20;25.70;;;22.80;58.50;;;;;;4963924;28;20487;-72
2022/06/11 07:28:58;;;;;;;26.37;24.90;;;22.80;58.30;;;;;;4966768;28;20460;-72
2022/06/11 07:31:28;;;;;;;26.33;24.93;;;22.90;58.30;;;;;;4965546;28;20533;-72
2022/06/11 07:33:55;;;;;;;28.97;27.27;;;23.00;58.50;;;;;;4968214;28;20547;-70
2022/06/11 07:36:23;;;;;;;27.20;25.50;;;23.00;57.90;;;;;;4982793;28;20529;-69
2022/06/11 07:38:52;;;;;;;27.80;26.20;;;23.00;57.90;;;;;;4965588;28;20571;-69
2022/06/11 07:41:19;;;;;;;26.90;25.20;;;23.10;57.90;;;;;;4961788;28;20470;-71
2022/06/11 07:43:47;;;;;;;28.07;26.47;;;23.00;57.90;;;;;;4964027;28;20512;-69
2022/06/11 07:46:20;;;;;;;27.47;25.87;;;23.10;58.20;;;;;;4969685;28;20571;-70
2022/06/11 07:48:48;;;;;;;26.53;24.93;;;23.10;57.90;;;;;;4965602;28;20576;-71
2022/06/11 07:51:18;;;;;;;26.47;25.00;;;23.10;58.10;;;;;;4965939;28;21281;-70
2022/06/11 07:53:46;;;;;;;27.90;25.60;;;23.30;57.90;;;;;;4967701;28;20458;-71
2022/06/11 07:56:15;;;;;;;29.00;27.20;;;23.50;57.50;;;;;;4963486;28;20890;-71
2022/06/11 07:58:42;;;;;;;26.33;24.83;;;23.60;57.10;;;;;;4970236;28;20482;-72
2022/06/11 08:01:18;;;;;;;27.00;25.30;;;23.60;56.80;;;;;;4961914;28;20485;-71
2022/06/11 08:03:45;;;;;;;26.87;25.13;;;23.70;56.50;;;;;;4963382;28;20472;-71
2022/06/11 08:06:12;;;;;;;26.80;25.20;;;23.70;56.70;;;;;;4967280;28;20845;-71
2022/06/11 08:08:45;;;;;;;27.83;25.97;;;23.90;56.90;;;;;;4961330;28;20470;-69
2022/06/11 08:11:14;;;;;;;28.13;26.43;;;24.00;56.50;;;;;;4961445;28;20463;-70
2022/06/11 08:13:41;;;;;;;26.83;25.23;;;24.00;55.80;;;;;;4965172;28;20458;-69
2022/06/11 08:16:10;;;;;;;27.63;25.93;;;24.00;55.60;;;;;;4968034;28;20574;-69
2022/06/11 08:18:38;;;;;;;29.20;27.50;;;24.00;56.10;;;;;;4959360;28;20531;-69
2022/06/11 08:21:06;;;;;;;28.77;26.63;;;24.10;55.80;;;;;;4961800;28;20471;-68
2022/06/11 08:23:33;;;;;;;26.73;25.13;;;24.20;54.90;;;;;;4960119;28;20483;-69
2022/06/11 08:26:00;;;;;;;27.50;25.80;;;24.20;54.20;;;;;;4964187;28;20562;-69
2022/06/11 08:28:31;;;;;;;26.93;25.20;;;24.20;54.70;;;;;;4965236;28;20471;-69
2022/06/11 08:30:58;;;;;;;27.00;25.30;;;24.20;54.60;;;;;;4964904;28;20976;-69
2022/06/11 08:33:25;;;;;;;27.00;25.33;;;24.20;54.70;;;;;;4969266;28;20474;-69
2022/06/11 08:35:52;;;;;;;27.43;25.43;;;24.30;54.50;;;;;;4965288;28;21594;-69
2022/06/11 08:38:19;;;;;;;26.37;24.50;;;24.40;53.40;;;;;;4966293;28;20526;-68
2022/06/11 08:40:48;;;;;;;28.50;26.73;;;24.40;53.20;;;;;;4963118;28;20467;-69
2022/06/11 08:43:20;;;;;;;26.87;25.27;;;24.40;53.50;;;;;;4969842;28;20473;-69
2022/06/11 08:45:51;;;;;;;28.70;26.90;;;24.40;53.40;;;;;;4965159;28;20479;-69
2022/06/11 08:48:34;;;;;;;27.33;25.53;;;24.30;53.30;;;;;;4967168;28;21195;-69
2022/06/11 08:51:09;;;;;;;28.97;27.10;;;24.50;53.10;;;;;;4955111;28;20459;-69
2022/06/11 08:53:39;;;;;;;27.63;26.00;;;24.50;53.00;;;;;;4953603;28;20463;-69
2022/06/11 08:56:13;;;;;;;27.83;26.13;;;24.60;53.00;;;;;;4959980;28;20565;-69
2022/06/11 08:58:51;;;;;;;26.83;25.23;;;24.70;53.10;;;;;;4959530;28;20805;-69
2022/06/11 09:01:25;;;;;;;27.53;25.80;;;24.80;52.50;;;;;;4965657;28;20462;-70
2022/06/11 09:04:07;;;;;;;28.43;26.53;;;24.70;52.30;;;;;;4960368;28;20466;-71
2022/06/11 09:06:59;;;;;;;27.63;25.83;;;24.60;52.00;;;;;;4961880;28;20537;-73
2022/06/11 09:09:39;;;;;;;28.00;26.30;;;24.40;52.30;;;;;;4959393;28;20460;-71
2022/06/11 09:12:38;;;;;;;27.57;25.77;;;24.40;52.90;;;;;;4962049;28;20550;-71
2022/06/11 09:15:19;;;;;;;28.13;26.33;;;24.40;52.70;;;;;;4945170;28;20463;-72
2022/06/11 09:18:23;;;;;;;28.93;27.00;;;24.40;52.00;;;;;;4961785;28;20478;-72
2022/06/11 09:20:58;;;;;;;28.10;26.20;;;24.40;51.90;;;;;;4962573;28;20806;-71
2022/06/11 09:23:59;;;;;;;27.03;25.50;;;24.40;52.50;;;;;;4964236;28;21237;-72
2022/06/11 09:26:39;;;;;;;28.43;26.57;;;24.70;52.50;;;;;;4965549;28;20490;-71
2022/06/11 09:29:13;;;;;;;26.90;25.20;;;24.90;52.20;;;;;;4969738;28;20530;-73
2022/06/11 09:31:48;;;;;;;28.77;26.50;;;25.00;51.70;;;;;;4970190;28;20553;-75
2022/06/11 09:34:24;;;;;;;28.40;26.53;;;25.20;51.00;;;;;;4966442;28;20975;-71
2022/06/11 09:36:57;;;;;;;29.57;27.67;;;25.20;51.10;;;;;;4961339;28;20606;-71
2022/06/11 09:39:37;;;;;;;31.17;29.57;;;25.20;50.70;;;;;;4966684;28;20489;-71
2022/06/11 09:42:21;;;;;;;28.70;26.90;;;25.20;50.70;;;;;;4955793;28;21192;-72
2022/06/11 09:44:54;;;;;;;29.33;27.43;;;25.30;50.80;;;;;;4967250;28;20520;-71
2022/06/11 09:47:30;;;;;;;27.90;26.20;;;25.40;50.00;;;;;;4964846;28;20581;-71
2022/06/11 09:50:13;;;;;;;29.43;27.53;;;25.40;50.50;;;;;;4968531;28;20462;-74
2022/06/11 09:52:45;;;;;;;27.83;25.93;;;25.50;50.30;;;;;;4964885;28;20816;-71
2022/06/11 09:55:27;;;;;;;32.10;28.87;;;25.60;50.50;;;;;;4961634;28;20461;-71
2022/06/11 09:58:02;;;;;;;29.50;27.60;;;25.80;50.50;;;;;;4962598;28;20536;-73
2022/06/11 10:00:35;;;;;;;28.73;27.03;;;26.10;49.90;;;;;;4963167;28;20459;-74
2022/06/11 10:03:23;;;;;;;29.77;27.97;;;26.30;49.60;;;;;;4962857;28;20491;-71
2022/06/11 10:06:00;;;;;;;28.77;27.13;;;26.60;49.10;;;;;;4958555;28;21213;-72
2022/06/11 10:08:39;;;;;;;27.80;25.90;;;26.80;48.30;;;;;;4962441;28;20461;-72
2022/06/11 10:11:16;;;;;;;29.00;27.10;;;26.80;47.90;;;;;;4962161;28;20477;-71
2022/06/11 10:13:57;;;;;;;28.30;26.50;;;26.80;48.60;;;;;;4962947;28;20464;-74
2022/06/11 10:16:32;;;;;;;28.30;26.50;;;26.70;47.50;;;;;;4964331;28;20482;-71
2022/06/11 10:19:15;;;;;;;29.20;27.40;;;26.60;47.90;;;;;;4966381;28;21210;-71
2022/06/11 10:21:55;;;;;;;28.00;26.40;;;26.60;48.00;;;;;;4961241;28;20568;-71
2022/06/11 10:24:25;;;;;;;27.53;25.93;;;26.60;48.20;;;;;;4962814;28;20462;-72
2022/06/11 10:26:57;;;;;;;28.13;26.53;;;26.70;48.00;;;;;;4965680;28;20910;-71
2022/06/11 10:29:28;;;;;;;29.30;27.60;;;26.70;47.30;;;;;;4964069;28;20499;-71
2022/06/11 10:32:02;;;;;;;28.30;26.67;;;26.30;48.20;;;;;;4963007;28;20464;-71
2022/06/11 10:34:31;;;;;;;28.50;26.80;;;26.20;48.50;;;;;;4970630;28;20520;-71
2022/06/11 10:37:05;;;;;;;29.17;27.33;;;26.00;48.80;;;;;;4970183;28;20993;-71
2022/06/11 10:39:40;;;;;;;32.17;30.30;;;26.10;48.60;;;;;;4965968;28;21005;-69
2022/06/11 10:42:12;;;;;;;29.43;27.47;;;26.10;48.70;;;;;;4965202;28;20533;-69
2022/06/11 10:44:43;;;;;;;28.97;27.27;;;26.20;49.10;;;;;;4970595;28;20917;-69
2022/06/11 10:47:17;;;;;;;29.23;27.53;;;26.20;48.30;;;;;;4965067;28;20482;-70
2022/06/11 10:49:45;;;;;;;31.87;29.87;;;26.20;48.50;;;;;;4965855;28;20487;-69
2022/06/11 10:52:26;;;;;;;29.03;27.20;;;26.30;48.50;;;;;;4976873;28;20562;-69
2022/06/11 10:54:53;;;;;;;29.17;27.43;;;26.50;48.30;;;;;;4969249;28;20550;-69
2022/06/11 10:57:25;;;;;;;30.90;28.90;;;26.50;48.60;;;;;;4970216;28;20488;-69
2022/06/11 10:59:59;;;;;;;29.47;27.70;;;26.60;48.40;;;;;;4969340;28;20503;-70
2022/06/11 11:02:29;;;;;;;28.67;26.83;;;26.60;48.30;;;;;;4963202;28;20547;-69
2022/06/11 11:05:00;;;;;;;31.17;28.93;;;26.60;48.50;;;;;;4964827;28;20495;-70
2022/06/11 11:07:43;;;;;;;28.87;27.13;;;26.70;48.40;;;;;;4965847;28;20569;-74
2022/06/11 11:10:21;;;;;;;29.33;27.43;;;27.00;47.30;;;;;;4967682;28;20475;-71
2022/06/11 11:12:52;;;;;;;29.17;27.47;;;27.10;47.50;;;;;;4966333;28;20458;-71
2022/06/11 11:15:36;;;;;;;28.50;26.80;;;27.00;48.50;;;;;;4964717;28;20560;-71
2022/06/11 11:18:12;;;;;;;29.80;27.90;;;27.00;48.20;;;;;;4968191;28;20472;-71
2022/06/11 11:20:43;;;;;;;31.23;28.87;;;26.90;48.10;;;;;;4965564;28;20478;-71
2022/06/11 11:23:16;;;;;;;29.00;27.20;;;27.10;47.30;;;;;;4969069;28;20458;-71
2022/06/11 11:25:46;;;;;;;28.90;27.20;;;27.10;47.50;;;;;;4969457;28;20570;-71
2022/06/11 11:28:21;;;;;;;28.57;26.77;;;27.20;47.30;;;;;;4965807;28;20455;-71
2022/06/11 11:30:59;;;;;;;29.90;27.90;;;27.10;47.30;;;;;;4969170;28;20557;-71
2022/06/11 11:33:30;;;;;;;29.03;27.33;;;27.20;46.90;;;;;;4965972;28;20475;-71
2022/06/11 11:36:14;;;;;;;29.13;27.13;;;27.10;47.00;;;;;;4969641;28;20569;-71
2022/06/11 11:38:42;;;;;;;28.83;26.80;;;27.10;46.80;;;;;;4965792;28;20481;-72
2022/06/11 11:41:26;;;;;;;30.00;28.07;;;27.10;47.00;;;;;;4969741;28;20553;-71
2022/06/11 11:43:58;;;;;;;29.80;27.90;;;27.20;46.90;;;;;;4968503;28;20472;-71
2022/06/11 11:46:28;;;;;;;27.97;26.37;;;27.30;46.80;;;;;;4974156;28;21026;-72
2022/06/11 11:48:58;;;;;;;28.23;26.40;;;27.30;47.20;;;;;;4967895;28;20459;-74
2022/06/11 11:51:33;;;;;;;30.30;28.50;;;27.40;47.30;;;;;;4971915;28;20593;-71
2022/06/11 11:54:04;;;;;;;29.30;27.60;;;27.40;47.00;;;;;;4967990;28;21281;-72
2022/06/11 11:56:37;;;;;;;28.47;26.67;;;27.50;46.80;;;;;;4972292;28;20564;-71
2022/06/11 11:59:14;;;;;;;28.83;27.03;;;27.50;47.60;;;;;;4964611;28;20485;-71
2022/06/11 12:01:42;;;;;;;30.93;28.80;;;27.60;47.60;;;;;;4968569;28;20961;-74
2022/06/11 12:04:16;;;;;;;28.30;26.70;;;27.60;47.70;;;;;;4965959;28;20467;-71
2022/06/11 12:06:46;;;;;;;30.13;28.03;;;27.60;47.70;;;;;;4969907;28;20485;-71
2022/06/11 12:09:30;;;;;;;29.27;27.20;;;27.50;47.00;;;;;;4960377;28;20455;-69
2022/06/11 12:12:01;;;;;;;29.20;27.50;;;27.50;47.40;;;;;;4969227;28;20474;-72
2022/06/11 12:14:38;;;;;;;29.60;27.70;;;27.50;47.40;;;;;;4967223;28;20996;-72
2022/06/11 12:17:25;;;;;;;29.80;27.90;;;27.60;46.70;;;;;;4965368;28;20573;-71
2022/06/11 12:19:57;;;;;;;439.97;310.00;;;27.90;46.40;;;;;;4964868;28;20992;-71
2022/06/11 12:22:32;;;;;;;63.00;56.50;;;28.00;46.20;;;;;;4970110;28;20599;-71
2022/06/11 12:25:01;;;;;;;51.47;46.60;;;28.20;46.50;;;;;;4969872;28;20470;-71
2022/06/11 12:27:33;;;;;;;31.47;28.97;;;28.30;46.60;;;;;;4967011;28;20980;-71
2022/06/11 12:30:04;;;;;;;28.80;26.87;;;28.50;45.60;;;;;;4972721;28;20461;-71
2022/06/11 12:32:33;;;;;;;28.27;26.43;;;28.70;44.50;;;;;;4969460;28;20475;-71
2022/06/11 12:35:01;;;;;;;28.37;26.67;;;28.80;44.10;;;;;;4963041;28;20874;-69
2022/06/11 12:37:37;;;;;;;30.57;28.70;;;28.90;44.20;;;;;;4971307;28;20546;-72
2022/06/11 12:40:20;;;;;;;33.80;31.17;;;29.00;43.80;;;;;;4963618;28;20482;-72
2022/06/11 12:42:57;;;;;;;37.63;34.50;;;29.00;44.60;;;;;;4967086;28;20550;-74
2022/06/11 12:45:30;;;;;;;29.10;27.30;;;29.00;45.40;;;;;;4964032;28;20463;-69
2022/06/11 12:48:12;;;;;;;31.70;30.00;;;29.10;44.30;;;;;;4970837;28;20564;-69
2022/06/11 12:50:48;;;;;;;30.60;28.80;;;29.00;44.90;;;;;;4962583;28;21225;-72